Time;durP1;ratioP1;P1;durP2;ratioP2;P2;SDS_P1;SDS_P2;PMS_P1;PMS_P2;Temp;Humidity;BMP_temperature;BMP_pressure;BME280_temperature;BME280_humidity;BME280_pressure;Samples;Min_cycle;Max_cycle;Signal;HPM_P1;HPM_P2
2023/03/16 00:00:55;;;;;;;12.90;7.80;;;0.00;99.90;;;-1.00;100.00;97587.13;5006465;28;20057;-37
2023/03/16 00:03:21;;;;;;;11.30;7.30;;;0.00;99.90;;;-0.93;100.00;97600.13;5005992;28;20033;-37
2023/03/16 00:05:49;;;;;;;13.88;7.78;;;0.00;99.90;;;-0.93;100.00;97602.72;5011337;28;20264;-37
2023/03/16 00:08:16;;;;;;;13.70;8.10;;;0.00;99.90;;;-0.93;100.00;97597.53;5007803;28;20040;-37
2023/03/16 00:10:46;;;;;;;10.77;8.50;;;0.00;99.90;;;-1.16;100.00;97562.78;5009487;28;20033;-37
2023/03/16 00:13:22;;;;;;;10.95;7.95;;;0.00;99.90;;;-0.98;100.00;97592.34;5008892;28;20124;-37
2023/03/16 00:15:54;;;;;;;14.60;9.30;;;0.00;99.90;;;-0.98;100.00;97594.91;5011825;28;20140;-37
2023/03/16 00:18:26;;;;;;;12.63;8.57;;;0.00;99.90;;;-1.01;100.00;97593.16;5010497;28;20048;-37
2023/03/16 00:21:02;;;;;;;12.55;8.43;;;0.00;99.90;;;-0.98;100.00;97595.78;5006893;28;20034;-37
2023/03/16 00:23:28;;;;;;;13.15;8.18;;;0.00;99.90;;;-1.18;100.00;97564.50;5012018;28;20254;-36
2023/03/16 00:25:59;;;;;;;14.00;8.73;;;0.00;99.90;;;-1.00;100.00;97588.88;5015610;28;22791;-36
2023/03/16 00:28:27;;;;;;;13.45;9.45;;;-0.10;99.90;;;-1.01;100.00;97595.75;5011034;28;20026;-36
2023/03/16 00:30:57;;;;;;;13.88;9.25;;;-0.10;99.90;;;-1.03;100.00;97594.00;5007352;28;20820;-36
2023/03/16 00:33:24;;;;;;;11.93;8.07;;;-0.10;99.90;;;-1.03;100.00;97592.25;5016572;28;20037;-36
2023/03/16 00:36:00;;;;;;;15.20;9.25;;;-0.10;99.90;;;-1.10;100.00;97587.00;5012555;28;20108;-37
2023/03/16 00:38:28;;;;;;;12.23;8.25;;;-0.20;99.90;;;-1.06;100.00;97602.59;5008551;28;20053;-36
2023/03/16 00:40:55;;;;;;;13.13;9.10;;;-0.10;99.90;;;-1.08;100.00;97595.66;5007917;28;20436;-36
2023/03/16 00:43:21;;;;;;;11.10;7.95;;;-0.10;99.90;;;-1.15;100.00;97586.94;5006250;28;20123;-36
2023/03/16 00:45:46;;;;;;;12.10;8.18;;;-0.20;99.90;;;-1.09;100.00;97601.69;5007668;28;20087;-36
2023/03/16 00:48:12;;;;;;;12.13;8.02;;;-0.20;99.90;;;-1.14;100.00;97588.69;5009760;28;20136;-37
2023/03/16 00:50:38;;;;;;;11.25;7.88;;;-0.20;99.90;;;-1.13;100.00;97598.22;5012133;28;20030;-36
2023/03/16 00:53:05;;;;;;;11.98;8.20;;;-0.20;99.90;;;-1.15;100.00;97594.69;5010694;28;20120;-36
2023/03/16 00:55:31;;;;;;;11.93;8.02;;;-0.20;99.90;;;-1.13;100.00;97595.63;5017571;28;20493;-37
2023/03/16 00:57:56;;;;;;;14.70;7.78;;;-0.20;99.90;;;-1.15;100.00;97581.75;5012225;28;20036;-36
2023/03/16 01:00:26;;;;;;;12.38;8.00;;;-0.20;99.90;;;-1.18;100.00;97587.78;5008241;28;20040;-36
2023/03/16 01:02:52;;;;;;;12.15;7.35;;;-0.20;99.90;;;-1.22;100.00;97583.44;5003029;28;20028;-36
2023/03/16 01:05:18;;;;;;;13.55;8.15;;;-0.20;99.90;;;-1.22;100.00;97586.03;5011805;28;20037;-37
2023/03/16 01:07:44;;;;;;;11.48;7.10;;;-0.20;99.90;;;-1.23;100.00;97589.44;5012372;28;20374;-36
2023/03/16 01:10:10;;;;;;;13.32;7.95;;;-0.30;99.90;;;-1.31;100.00;97577.25;5008535;28;20486;-36
2023/03/16 01:12:36;;;;;;;11.85;7.78;;;-0.30;99.90;;;-1.30;100.00;97584.19;4995126;28;20032;-36
2023/03/16 01:15:02;;;;;;;13.02;7.97;;;-0.30;99.90;;;-1.28;100.00;97591.09;5009172;28;20037;-36
2023/03/16 01:17:28;;;;;;;10.95;7.47;;;-0.30;99.90;;;-1.30;100.00;97586.75;5010103;28;20041;-36
2023/03/16 01:19:54;;;;;;;12.70;7.93;;;-0.30;99.90;;;-1.33;100.00;97585.00;5013617;28;20033;-36
2023/03/16 01:22:20;;;;;;;11.38;8.20;;;-0.40;99.90;;;-1.30;100.00;97584.19;5011380;28;20042;-36
2023/03/16 01:24:46;;;;;;;11.05;7.90;;;-0.30;99.90;;;-1.29;100.00;97579.03;5013440;28;20493;-36
2023/03/16 01:27:13;;;;;;;12.57;8.45;;;-0.30;99.90;;;-1.29;100.00;97589.38;5015381;28;20040;-37
2023/03/16 01:29:39;;;;;;;11.70;7.88;;;-0.30;99.90;;;-1.29;100.00;97583.31;5012550;28;20034;-37
2023/03/16 01:32:06;;;;;;;11.52;8.15;;;-0.30;99.90;;;-1.36;100.00;97565.13;5012747;28;20083;-36
2023/03/16 01:34:32;;;;;;;12.52;8.13;;;-0.30;99.90;;;-1.36;100.00;97575.47;5015087;28;20044;-36
2023/03/16 01:36:59;;;;;;;14.23;8.88;;;-0.30;99.90;;;-1.33;100.00;97581.53;5011784;28;20049;-37
2023/03/16 01:39:25;;;;;;;12.20;8.40;;;-0.30;99.90;;;-1.33;100.00;97577.22;5005022;28;20486;-37
2023/03/16 01:41:50;;;;;;;12.00;8.82;;;-0.30;99.90;;;-1.37;100.00;97563.38;5012204;28;20037;-36
2023/03/16 01:44:23;;;;;;;11.80;8.70;;;-0.30;99.90;;;-1.35;100.00;97577.22;5010366;28;20033;-36
2023/03/16 01:46:49;;;;;;;14.18;8.48;;;-0.40;99.90;;;-1.36;100.00;97572.91;5008448;28;20021;-35
2023/03/16 01:49:31;;;;;;;14.63;8.63;;;-0.30;99.90;;;-1.36;100.00;97574.63;5012150;28;20033;-36
2023/03/16 01:52:09;;;;;;;14.80;8.48;;;-0.40;99.90;;;-1.37;100.00;97576.31;5009737;23;20202;-38
2023/03/16 01:54:47;;;;;;;15.32;9.05;;;-0.40;99.90;;;-1.37;100.00;97573.72;4989930;28;20352;-38
2023/03/16 01:57:20;;;;;;;13.60;9.20;;;-0.30;99.90;;;-1.38;100.00;97563.38;5014364;28;20469;-37
2023/03/16 01:59:52;;;;;;;16.77;9.38;;;-0.40;99.90;;;-1.39;100.00;97561.63;5015929;28;20040;-38
2023/03/16 02:02:22;;;;;;;16.30;9.52;;;-0.40;99.90;;;-1.42;100.00;97561.59;5016817;28;20040;-38
2023/03/16 02:05:01;;;;;;;16.98;9.85;;;-0.40;99.90;;;-1.53;100.00;97545.94;4990726;28;20033;-38
2023/03/16 02:07:31;;;;;;;15.20;9.98;;;-0.50;99.90;;;-1.51;100.00;97546.81;4999174;28;20033;-38
2023/03/16 02:09:59;;;;;;;14.00;8.77;;;-0.50;99.90;;;-1.48;100.00;97561.53;5011223;28;20060;-38
2023/03/16 02:12:26;;;;;;;16.90;10.15;;;-0.50;99.90;;;-1.51;100.00;97557.16;5010934;28;20028;-39
2023/03/16 02:14:52;;;;;;;15.50;10.02;;;-0.50;99.90;;;-1.50;100.00;97558.91;5011683;28;20649;-39
2023/03/16 02:17:21;;;;;;;13.45;9.50;;;-0.50;99.90;;;-1.50;100.00;97553.75;5004879;28;20745;-39
2023/03/16 02:20:24;;;;;;;16.55;9.68;;;-0.50;99.90;;;-1.52;100.00;97549.41;4994147;28;20041;-39
2023/03/16 02:22:55;;;;;;;15.90;10.15;;;-0.50;99.90;;;-1.55;100.00;97535.56;5014144;28;20086;-39
2023/03/16 02:25:27;;;;;;;15.15;9.80;;;-0.60;99.90;;;-1.56;100.00;97538.16;5018322;28;20037;-39
2023/03/16 02:28:09;;;;;;;16.00;9.82;;;-0.50;99.90;;;-1.50;100.00;97542.53;4997072;28;20137;-39
2023/03/16 02:30:35;;;;;;;16.08;9.90;;;-0.50;99.90;;;-1.57;100.00;97541.56;5000671;28;20733;-39
2023/03/16 02:33:03;;;;;;;19.08;10.00;;;-0.50;99.90;;;-1.54;100.00;97546.78;5017263;28;20465;-39
2023/03/16 02:35:30;;;;;;;12.90;9.13;;;-0.50;99.90;;;-1.55;100.00;97553.66;5019700;28;21592;-39
2023/03/16 02:37:56;;;;;;;13.95;9.68;;;-0.50;99.90;;;-1.58;100.00;97539.81;5014415;28;20516;-39
2023/03/16 02:40:27;;;;;;;14.05;9.25;;;-0.50;99.90;;;-1.55;100.00;97547.63;5015792;28;20420;-38
2023/03/16 02:43:03;;;;;;;15.03;9.77;;;-0.50;99.90;;;-1.56;100.00;97546.78;5012175;28;20045;-39
2023/03/16 02:45:43;;;;;;;15.25;9.55;;;-0.60;99.90;;;-1.57;100.00;97541.56;5011209;28;20143;-38
2023/03/16 02:48:17;;;;;;;15.70;9.60;;;-0.60;99.90;;;-1.59;100.00;97531.19;4998293;28;20333;-39
2023/03/16 02:50:49;;;;;;;16.52;9.63;;;-0.60;99.90;;;-1.61;100.00;97529.47;4998473;28;20048;-38
2023/03/16 02:53:16;;;;;;;14.15;9.63;;;-0.60;99.90;;;-1.59;100.00;97538.97;5011178;28;20392;-39
2023/03/16 02:55:42;;;;;;;15.75;10.80;;;-0.60;99.90;;;-1.61;100.00;97532.03;4992553;28;20311;-39
2023/03/16 02:58:08;;;;;;;14.60;9.88;;;-0.60;99.90;;;-1.60;100.00;97537.25;5013084;28;20029;-39
2023/03/16 03:00:33;;;;;;;16.25;10.73;;;-0.60;99.90;;;-1.61;100.00;97534.63;5007896;28;20033;-39
2023/03/16 03:02:59;;;;;;;16.02;10.45;;;-0.60;99.90;;;-1.64;100.00;97525.09;5006600;28;20110;-39
2023/03/16 03:05:25;;;;;;;14.88;10.05;;;-0.60;99.90;;;-1.73;100.00;97510.31;5002807;28;20489;-39
2023/03/16 03:07:51;;;;;;;14.32;10.13;;;-0.70;99.90;;;-1.68;100.00;97525.91;5003983;28;20041;-39
2023/03/16 03:10:16;;;;;;;15.32;9.98;;;-0.70;99.90;;;-1.67;100.00;97525.09;5016542;28;20128;-39
2023/03/16 03:12:42;;;;;;;16.90;10.52;;;-0.70;99.90;;;-1.68;100.00;97518.16;5012367;28;20032;-39
2023/03/16 03:15:09;;;;;;;15.07;9.65;;;-0.70;99.90;;;-1.67;100.00;97524.19;5008469;28;20059;-39
2023/03/16 03:17:36;;;;;;;13.80;9.65;;;-0.70;99.90;;;-1.73;100.00;97518.09;5004644;28;20033;-39
2023/03/16 03:20:06;;;;;;;15.07;9.75;;;-0.70;99.90;;;-1.68;100.00;97525.91;5015323;28;21089;-38
2023/03/16 03:22:32;;;;;;;16.52;10.45;;;-0.70;99.90;;;-1.71;100.00;97528.44;4992561;28;20128;-39
2023/03/16 03:24:58;;;;;;;15.63;10.13;;;-0.70;99.90;;;-1.70;100.00;97522.44;5003894;28;20850;-39
2023/03/16 03:27:24;;;;;;;16.73;10.15;;;-0.70;99.90;;;-1.69;100.00;97523.31;4981618;28;20486;-39
2023/03/16 03:29:49;;;;;;;15.77;10.75;;;-0.70;99.90;;;-1.70;100.00;97519.00;5008033;28;20051;-39
2023/03/16 03:32:15;;;;;;;14.65;9.98;;;-0.70;99.90;;;-1.70;100.00;97504.34;5010002;28;20390;-39
2023/03/16 03:34:41;;;;;;;16.15;10.27;;;-0.80;99.90;;;-1.70;100.00;97506.06;5005192;28;20076;-39
2023/03/16 03:37:07;;;;;;;16.10;10.43;;;-0.70;99.90;;;-1.73;100.00;97499.97;5016977;28;20060;-39
2023/03/16 03:39:33;;;;;;;15.27;10.73;;;-0.70;99.90;;;-1.77;100.00;97494.78;5018421;28;20087;-39
2023/03/16 03:41:58;;;;;;;16.25;10.05;;;-0.80;99.90;;;-1.74;100.00;97512.91;5019801;28;20034;-39
2023/03/16 03:44:25;;;;;;;14.82;10.27;;;-0.70;99.90;;;-1.78;100.00;97503.34;5014383;28;20671;-39
2023/03/16 03:46:51;;;;;;;16.17;10.60;;;-0.70;99.90;;;-1.75;100.00;97500.81;5013920;28;20128;-39
2023/03/16 03:49:17;;;;;;;16.38;11.13;;;-0.80;99.90;;;-1.78;100.00;97493.88;5011153;28;20046;-39
2023/03/16 03:51:43;;;;;;;20.13;11.60;;;-0.70;99.90;;;-1.77;100.00;97508.56;5010835;28;20033;-39
2023/03/16 03:54:09;;;;;;;18.23;11.90;;;-0.70;99.90;;;-1.83;100.00;97498.16;5017319;28;20581;-39
2023/03/16 03:56:35;;;;;;;18.27;12.13;;;-0.70;99.90;;;-1.89;100.00;97492.00;5011499;28;20061;-40
2023/03/16 03:59:00;;;;;;;18.17;12.25;;;-0.80;99.90;;;-1.79;100.00;97499.91;5003759;28;20091;-39
2023/03/16 04:01:26;;;;;;;17.17;11.18;;;-0.70;99.90;;;-1.79;100.00;97488.72;5016069;28;20037;-39
2023/03/16 04:03:52;;;;;;;20.60;11.90;;;-0.70;99.90;;;-1.80;100.00;97485.25;5012591;28;20034;-39
2023/03/16 04:06:17;;;;;;;19.42;12.13;;;-0.70;99.90;;;-1.77;100.00;97489.59;5004260;28;20501;-39
2023/03/16 04:08:43;;;;;;;18.48;12.40;;;-0.70;99.90;;;-1.81;100.00;97486.09;5006577;28;20497;-39
2023/03/16 04:11:10;;;;;;;21.70;12.48;;;-0.70;99.90;;;-1.74;100.00;97500.00;5020785;28;20030;-39
2023/03/16 04:13:36;;;;;;;18.65;12.70;;;-0.70;99.90;;;-1.75;100.00;97491.34;5014249;28;20033;-40
2023/03/16 04:16:02;;;;;;;17.38;10.95;;;-0.70;99.90;;;-1.73;100.00;97493.94;5017461;28;20033;-39
2023/03/16 04:18:29;;;;;;;20.38;11.82;;;-0.70;99.90;;;-1.74;100.00;97494.81;5018565;28;20095;-39
2023/03/16 04:20:55;;;;;;;22.60;13.20;;;-0.70;99.90;;;-1.70;100.00;97487.97;5010768;28;20056;-39
2023/03/16 04:23:23;;;;;;;18.75;12.25;;;-0.70;99.90;;;-1.70;100.00;97493.13;5012278;28;21542;-39
2023/03/16 04:25:49;;;;;;;20.20;12.27;;;-0.70;99.90;;;-1.75;100.00;97495.66;5015002;28;20036;-39
2023/03/16 04:28:16;;;;;;;19.52;12.05;;;-0.70;99.90;;;-1.72;100.00;97485.34;5016563;28;20520;-39
2023/03/16 04:30:42;;;;;;;19.25;11.90;;;-0.70;99.90;;;-1.74;100.00;97485.34;5017852;28;20033;-39
2023/03/16 04:33:08;;;;;;;17.92;11.63;;;-0.70;99.90;;;-1.73;100.00;97481.03;5017300;28;20040;-39
2023/03/16 04:35:34;;;;;;;19.13;12.32;;;-0.70;99.90;;;-1.88;100.00;97454.97;5011062;28;20526;-40
2023/03/16 04:38:01;;;;;;;18.48;11.93;;;-0.70;99.90;;;-1.81;100.00;97472.28;5019591;28;20064;-38
2023/03/16 04:40:27;;;;;;;17.40;11.52;;;-0.80;99.90;;;-2.00;100.00;97424.66;5012993;28;21037;-38
2023/03/16 04:42:52;;;;;;;17.80;11.55;;;-0.80;99.90;;;-1.76;100.00;97470.63;5021296;28;20103;-38
2023/03/16 04:45:18;;;;;;;19.95;12.30;;;-0.80;99.90;;;-1.78;100.00;97473.19;5018506;28;20091;-38
2023/03/16 04:47:44;;;;;;;19.65;12.82;;;-0.70;99.90;;;-1.78;100.00;97473.19;5023636;28;20079;-38
2023/03/16 04:50:11;;;;;;;19.30;12.55;;;-0.70;99.90;;;-1.79;100.00;97468.03;5016536;28;20025;-38
2023/03/16 04:52:37;;;;;;;16.92;11.02;;;-0.70;99.90;;;-1.76;100.00;97476.69;5016269;28;20406;-39
2023/03/16 04:55:03;;;;;;;19.30;12.00;;;-0.80;99.90;;;-1.84;100.00;97459.34;5012189;28;20032;-38
2023/03/16 04:57:29;;;;;;;19.23;12.63;;;-0.80;99.90;;;-1.79;100.00;97473.19;5025051;28;20052;-38
2023/03/16 04:59:54;;;;;;;18.67;12.57;;;-0.80;99.90;;;-1.78;100.00;97480.94;5010651;28;20125;-38
2023/03/16 05:02:20;;;;;;;19.23;12.40;;;-0.80;99.90;;;-1.75;100.00;97474.97;5019311;28;20452;-38
2023/03/16 05:04:47;;;;;;;19.55;11.88;;;-0.80;99.90;;;-1.77;100.00;97480.13;5020422;28;20052;-38
2023/03/16 05:07:13;;;;;;;19.73;12.35;;;-0.80;99.90;;;-1.79;100.00;97476.66;5014137;28;20070;-38
2023/03/16 05:09:39;;;;;;;17.35;11.98;;;-0.80;99.90;;;-1.77;100.00;97476.66;5007844;28;20071;-38
2023/03/16 05:12:04;;;;;;;19.73;12.48;;;-0.80;99.90;;;-1.83;100.00;97467.13;5020570;28;20032;-39
2023/03/16 05:14:30;;;;;;;20.38;12.35;;;-0.80;99.90;;;-1.83;100.00;97473.97;5017318;28;20231;-39
2023/03/16 05:16:56;;;;;;;18.17;11.88;;;-0.80;99.90;;;-1.89;100.00;97455.81;5008007;28;20075;-39
2023/03/16 05:19:21;;;;;;;20.17;12.82;;;-0.90;99.90;;;-1.84;100.00;97473.13;5005935;28;20038;-39
2023/03/16 05:21:48;;;;;;;18.35;12.05;;;-0.90;99.90;;;-1.85;100.00;97467.94;5011216;28;20046;-39
2023/03/16 05:24:13;;;;;;;16.73;11.25;;;-0.90;99.90;;;-1.86;100.00;97472.25;5017012;28;20033;-39
2023/03/16 05:26:39;;;;;;;18.35;11.65;;;-0.90;99.90;;;-1.85;100.00;97470.53;5017824;28;20056;-39
2023/03/16 05:29:05;;;;;;;16.98;10.93;;;-0.90;99.90;;;-1.84;100.00;97469.69;5017271;28;20041;-39
2023/03/16 05:31:35;;;;;;;18.13;11.73;;;-0.90;99.90;;;-1.85;100.00;97473.97;5011038;28;20420;-39
2023/03/16 05:34:01;;;;;;;18.02;12.00;;;-0.90;99.90;;;-1.92;100.00;97465.28;5009599;28;20109;-38
2023/03/16 05:36:27;;;;;;;19.65;12.18;;;-0.90;99.90;;;-1.86;100.00;97468.78;5019552;28;20025;-39
2023/03/16 05:38:52;;;;;;;18.92;11.80;;;-0.80;99.90;;;-1.84;100.00;97469.69;5018663;28;20056;-39
2023/03/16 05:41:20;;;;;;;19.92;11.32;;;-0.80;99.90;;;-1.82;100.00;97465.41;5017347;28;20025;-39
2023/03/16 05:43:46;;;;;;;17.92;11.68;;;-0.80;99.90;;;-1.80;100.00;97474.88;5017791;28;20032;-39
2023/03/16 05:46:12;;;;;;;22.05;12.63;;;-0.80;99.90;;;-1.78;100.00;97464.56;5014253;28;20126;-39
2023/03/16 05:48:38;;;;;;;18.45;12.05;;;-0.80;99.90;;;-1.83;100.00;97448.13;5021545;28;20038;-39
2023/03/16 05:51:04;;;;;;;18.20;11.88;;;-0.80;99.90;;;-1.73;100.00;97453.44;5020342;28;20076;-39
2023/03/16 05:53:31;;;;;;;19.77;12.70;;;-0.70;99.90;;;-1.62;100.00;97460.47;4997413;28;20401;-39
2023/03/16 05:55:58;;;;;;;20.23;12.50;;;-0.70;99.90;;;-1.60;100.00;97458.75;4997074;28;20473;-39
2023/03/16 05:58:23;;;;;;;17.40;12.23;;;-0.60;99.90;;;-1.60;100.00;97446.72;5013217;28;20047;-38
2023/03/16 06:00:49;;;;;;;17.52;12.07;;;-0.60;99.90;;;-1.55;100.00;97455.38;5016577;28;20029;-39
2023/03/16 06:03:16;;;;;;;20.38;13.18;;;-0.60;99.90;;;-1.50;100.00;97447.69;5019115;28;20374;-39
2023/03/16 06:05:42;;;;;;;17.00;11.50;;;-0.60;99.90;;;-1.45;100.00;97456.38;5014162;28;20485;-39
2023/03/16 06:08:08;;;;;;;20.08;12.00;;;-0.50;99.90;;;-1.45;100.00;97443.44;5014116;28;20112;-39
2023/03/16 06:10:35;;;;;;;20.40;12.63;;;-0.50;99.90;;;-1.37;100.00;97449.53;5008709;28;20844;-39
2023/03/16 06:13:01;;;;;;;19.10;12.35;;;-0.50;99.90;;;-1.33;100.00;97447.84;5014213;28;20215;-39
2023/03/16 06:15:29;;;;;;;20.33;12.40;;;-0.40;99.90;;;-1.29;100.00;97453.94;5019874;28;20033;-39
2023/03/16 06:17:55;;;;;;;18.33;12.25;;;-0.40;99.90;;;-1.35;100.00;97446.97;5008985;28;20033;-39
2023/03/16 06:20:21;;;;;;;19.77;12.82;;;-0.40;99.90;;;-1.28;100.00;97453.09;5012352;28;20032;-40
2023/03/16 06:22:47;;;;;;;17.67;11.88;;;-0.30;99.90;;;-1.21;100.00;97458.34;5016180;28;20675;-39
2023/03/16 06:25:14;;;;;;;19.50;12.45;;;-0.30;99.90;;;-1.17;100.00;97454.97;5020082;28;20068;-38
2023/03/16 06:27:40;;;;;;;21.85;13.27;;;-0.20;99.90;;;-1.12;100.00;97456.72;5017244;28;20033;-39
2023/03/16 06:30:10;;;;;;;21.67;13.02;;;-0.20;99.90;;;-1.06;100.00;97467.13;5011957;28;20037;-39
2023/03/16 06:32:37;;;;;;;21.10;14.98;;;-0.10;99.90;;;-1.03;100.00;97465.41;5017134;28;20501;-39
2023/03/16 06:35:04;;;;;;;21.08;13.43;;;-0.10;99.90;;;-0.94;100.00;97463.78;5019916;28;20106;-39
2023/03/16 06:37:30;;;;;;;22.08;13.88;;;0.00;99.90;;;-0.87;100.00;97465.59;5012026;28;20030;-39
2023/03/16 06:39:56;;;;;;;27.08;15.00;;;0.00;99.90;;;-0.98;100.00;97440.44;5012376;28;20725;-39
2023/03/16 06:42:22;;;;;;;23.42;14.32;;;0.10;99.90;;;-0.77;100.00;97452.72;5015964;28;20079;-39
2023/03/16 06:44:48;;;;;;;21.30;13.60;;;0.20;99.90;;;-0.70;100.00;97466.59;5016051;28;20068;-39
2023/03/16 06:47:14;;;;;;;21.67;14.75;;;0.20;99.90;;;-0.66;100.00;97463.19;5015328;28;20630;-39
2023/03/16 06:49:39;;;;;;;24.02;14.75;;;0.30;99.90;;;-0.64;100.00;97463.19;5015279;28;20029;-39
2023/03/16 06:52:05;;;;;;;21.67;14.10;;;0.30;99.90;;;-0.56;100.00;97466.69;4993780;28;20042;-40
2023/03/16 06:54:33;;;;;;;19.90;13.55;;;0.40;99.90;;;-0.49;100.00;97470.22;5007223;28;20120;-39
2023/03/16 06:57:00;;;;;;;24.88;13.88;;;0.40;99.90;;;-0.45;100.00;97461.59;4983538;28;20095;-40
2023/03/16 06:59:26;;;;;;;22.70;14.25;;;0.50;99.90;;;-0.38;100.00;97463.38;5009800;28;20036;-40
2023/03/16 07:01:51;;;;;;;25.13;15.90;;;0.60;99.90;;;-0.31;100.00;97466.91;5022481;28;20365;-39
2023/03/16 07:04:17;;;;;;;23.15;14.70;;;0.60;99.90;;;-0.31;100.00;97467.75;5021468;28;20102;-39
2023/03/16 07:06:43;;;;;;;25.83;16.10;;;0.60;99.90;;;-0.36;100.00;97445.25;5018784;28;20459;-39
2023/03/16 07:09:09;;;;;;;23.20;14.68;;;0.70;99.90;;;-0.14;100.00;97472.19;5017003;28;20053;-39
2023/03/16 07:11:35;;;;;;;24.08;15.23;;;0.80;99.90;;;-0.13;100.00;97466.16;5014592;28;20037;-40
2023/03/16 07:14:01;;;;;;;21.10;13.82;;;0.80;99.90;;;-0.05;100.00;97467.94;5019277;28;20676;-39
2023/03/16 07:16:27;;;;;;;21.35;14.18;;;0.90;99.90;;;0.09;100.00;97470.63;5022681;28;20112;-40
2023/03/16 07:18:53;;;;;;;23.92;14.40;;;1.00;99.90;;;0.17;100.00;97474.09;5020738;28;20040;-39
2023/03/16 07:21:20;;;;;;;22.15;15.05;;;1.10;99.90;;;0.25;100.00;97481.06;5021418;28;20042;-40
2023/03/16 07:23:46;;;;;;;26.05;14.88;;;1.10;99.90;;;0.27;100.00;97466.38;5016125;28;20033;-39
2023/03/16 07:26:12;;;;;;;26.05;15.40;;;1.20;99.90;;;0.37;100.00;97468.16;5011561;28;20040;-40
2023/03/16 07:28:38;;;;;;;24.95;14.90;;;1.30;99.90;;;0.49;100.00;97483.78;5014035;28;20079;-39
2023/03/16 07:31:05;;;;;;;25.60;15.27;;;1.40;99.90;;;0.56;100.00;97482.09;5021798;28;20021;-39
2023/03/16 07:33:33;;;;;;;23.08;15.43;;;1.40;99.90;;;0.58;100.00;97485.53;5023903;28;20044;-39
2023/03/16 07:35:59;;;;;;;24.75;14.75;;;1.50;99.90;;;0.62;100.00;97486.44;5013154;28;20035;-39
2023/03/16 07:38:25;;;;;;;23.98;14.38;;;1.50;99.90;;;0.72;100.00;97477.81;5012917;28;20063;-39
2023/03/16 07:40:53;;;;;;;20.98;14.50;;;1.60;99.90;;;0.76;100.00;97472.63;5011796;28;20025;-39
2023/03/16 07:43:19;;;;;;;23.38;14.82;;;1.70;99.90;;;0.82;100.00;97484.75;5016510;28;20038;-39
2023/03/16 07:45:50;;;;;;;26.05;14.70;;;1.70;99.90;;;0.87;100.00;97475.25;5017036;28;20045;-39
2023/03/16 07:48:16;;;;;;;22.77;14.52;;;1.70;99.90;;;0.90;100.00;97485.66;5023685;28;20199;-39
2023/03/16 07:50:43;;;;;;;24.23;15.10;;;1.80;99.90;;;0.94;100.00;97483.94;5018441;28;20690;-38
2023/03/16 07:53:09;;;;;;;19.73;13.48;;;1.80;99.90;;;1.01;100.00;97477.03;5042518;22;20540;-50
2023/03/16 07:55:38;;;;;;;21.38;13.45;;;1.90;99.90;;;1.09;100.00;97483.09;5029287;28;20032;-53
2023/03/16 07:58:05;;;;;;;20.10;12.73;;;1.90;99.90;;;1.16;100.00;97481.38;5030421;28;20484;-54
2023/03/16 08:00:32;;;;;;;23.08;14.38;;;2.00;99.90;;;1.18;100.00;97482.25;5027955;28;20090;-48
2023/03/16 08:02:58;;;;;;;19.33;11.93;;;2.10;99.90;;;1.25;100.00;97478.78;5025355;28;20331;-49
2023/03/16 08:05:23;;;;;;;18.92;12.73;;;2.10;99.90;;;1.31;100.00;97487.47;5013786;28;20040;-48
2023/03/16 08:07:50;;;;;;;20.73;13.27;;;2.20;99.90;;;1.31;100.00;97490.06;5018657;28;20448;-49
2023/03/16 08:10:17;;;;;;;21.08;12.45;;;2.20;99.90;;;1.42;100.00;97473.59;5019628;28;20029;-52
2023/03/16 08:12:43;;;;;;;18.60;12.13;;;2.30;99.90;;;1.48;100.00;97482.25;5020298;28;20024;-51
2023/03/16 08:15:10;;;;;;;19.52;12.65;;;2.30;99.90;;;1.52;100.00;97489.19;5019250;28;20033;-49
2023/03/16 08:17:36;;;;;;;20.83;13.00;;;2.40;99.90;;;1.53;100.00;97490.94;5024687;28;20103;-53
2023/03/16 08:20:09;;;;;;;24.00;12.13;;;2.40;99.90;;;1.62;100.00;97484.88;5022881;28;20038;-53
2023/03/16 08:22:36;;;;;;;20.08;11.95;;;2.40;99.90;;;1.66;100.00;97476.19;5025761;28;20041;-48
2023/03/16 08:25:09;;;;;;;21.50;12.15;;;2.50;99.90;;;1.74;100.00;97489.19;5022668;28;20037;-51
2023/03/16 08:27:36;;;;;;;18.05;12.15;;;2.50;99.90;;;1.80;100.00;97489.19;5025566;28;20092;-49
2023/03/16 08:30:10;;;;;;;17.33;11.90;;;2.60;99.90;;;1.87;100.00;97477.06;5028047;28;20120;-51
2023/03/16 08:32:38;;;;;;;14.32;10.57;;;2.70;99.90;;;1.95;100.00;97475.31;5025983;28;20085;-54
2023/03/16 08:35:08;;;;;;;15.55;10.52;;;2.70;99.90;;;2.05;100.00;97478.78;5021929;28;20029;-49
2023/03/16 08:37:34;;;;;;;17.50;11.38;;;2.80;99.90;;;2.09;100.00;97470.94;5025235;28;20029;-52
2023/03/16 08:40:00;;;;;;;15.48;10.90;;;2.90;99.90;;;2.19;100.00;97469.19;5028721;28;20119;-54
2023/03/16 08:42:27;;;;;;;17.25;11.18;;;3.00;99.90;;;2.26;100.00;97459.63;5023174;28;20033;-50
2023/03/16 08:44:54;;;;;;;18.80;12.23;;;3.00;99.90;;;2.34;100.00;97465.69;5022765;28;20045;-51
2023/03/16 08:47:23;;;;;;;15.73;10.63;;;3.10;99.90;;;2.51;100.00;97456.94;5018286;28;20033;-51
2023/03/16 08:49:49;;;;;;;16.42;10.30;;;3.20;99.90;;;2.59;100.00;97450.81;5025353;28;20141;-49
2023/03/16 08:52:15;;;;;;;18.35;11.00;;;3.30;99.90;;;2.66;100.00;97447.31;5028252;28;20056;-53
2023/03/16 08:54:42;;;;;;;16.40;10.13;;;3.40;99.90;;;2.76;100.00;97452.47;5020416;28;20549;-54
2023/03/16 08:57:09;;;;;;;13.40;8.85;;;3.50;99.90;;;2.86;100.00;97459.38;5023696;28;20033;-50
2023/03/16 08:59:35;;;;;;;12.88;8.25;;;3.60;99.90;;;2.93;100.00;97453.25;5016449;28;20028;-54
2023/03/16 09:02:03;;;;;;;13.52;8.75;;;3.60;99.90;;;2.98;100.00;97453.22;5024542;28;20066;-50
2023/03/16 09:04:29;;;;;;;13.60;7.97;;;3.70;99.90;;;3.06;100.00;97444.47;5016873;28;20076;-50
2023/03/16 09:06:55;;;;;;;14.20;7.88;;;3.80;99.90;;;3.19;100.00;97458.28;5011983;28;20045;-54
2023/03/16 09:09:21;;;;;;;12.60;7.38;;;3.90;99.90;;;3.31;100.00;97459.09;5016240;28;20029;-52
2023/03/16 09:11:48;;;;;;;15.30;7.38;;;4.00;99.90;;;3.41;100.00;97458.13;5015361;28;20760;-54
2023/03/16 09:14:14;;;;;;;12.20;7.28;;;4.10;99.90;;;3.44;100.00;97452.91;5019231;28;20052;-51
2023/03/16 09:16:40;;;;;;;12.05;7.05;;;4.20;99.90;;;3.53;100.00;97445.00;5012870;28;20485;-54
2023/03/16 09:19:06;;;;;;;14.55;6.53;;;4.20;99.90;;;3.72;100.00;97450.09;5020398;28;20520;-53
2023/03/16 09:21:33;;;;;;;15.65;6.28;;;4.40;99.90;;;3.81;100.00;97439.56;5019967;28;20112;-51
2023/03/16 09:23:59;;;;;;;12.13;5.32;;;4.50;99.90;;;3.98;100.00;97434.16;5005896;28;20059;-53
2023/03/16 09:26:27;;;;;;;8.50;5.70;;;4.60;99.90;;;4.10;100.00;97435.78;5011315;28;20038;-50
2023/03/16 09:28:53;;;;;;;9.75;5.70;;;4.80;99.90;;;4.21;100.00;97431.31;5016289;28;20095;-55
2023/03/16 09:31:19;;;;;;;9.35;6.25;;;4.90;99.90;;;4.36;100.00;97436.38;5006387;28;20041;-51
2023/03/16 09:33:45;;;;;;;12.60;6.18;;;5.00;99.90;;;4.46;100.00;97438.88;5009753;28;20061;-53
2023/03/16 09:36:13;;;;;;;8.75;5.20;;;5.20;99.90;;;4.64;100.00;97441.25;5015441;28;20042;-53
2023/03/16 09:38:40;;;;;;;9.82;5.70;;;5.30;99.90;;;4.77;100.00;97442.84;5016635;28;20062;-53
2023/03/16 09:41:41;;;;;;;12.15;6.50;;;5.50;99.90;;;4.83;100.00;97441.88;5017796;28;20025;-54
2023/03/16 09:44:31;;;;;;;13.55;5.63;;;5.60;99.90;;;5.00;100.00;97425.97;4997146;28;20114;-51
2023/03/16 09:47:00;;;;;;;11.30;4.90;;;5.70;99.90;;;5.16;100.00;97427.47;5012428;28;20130;-53
2023/03/16 09:49:41;;;;;;;8.73;5.47;;;5.90;99.90;;;5.28;100.00;97420.34;5000620;28;20401;-53
2023/03/16 09:52:34;;;;;;;11.15;5.35;;;6.00;99.90;;;5.53;100.00;97415.56;5008830;28;20041;-54
2023/03/16 09:55:18;;;;;;;;;;;6.20;99.90;;;5.63;100.00;97419.75;5009173;28;20551;-53
2023/03/16 09:57:46;;;;;;;8.18;5.03;;;6.40;99.90;;;5.82;100.00;97420.31;5012405;28;20041;-50
2023/03/16 10:00:20;;;;;;;8.15;4.63;;;6.50;99.90;;;5.91;100.00;97409.66;5002703;28;20100;-55
2023/03/16 10:03:15;;;;;;;7.30;4.82;;;6.70;99.90;;;6.11;100.00;97411.09;4993085;28;20025;-54
2023/03/16 10:05:41;;;;;;;8.50;3.97;;;6.80;99.90;;;6.30;100.00;97406.38;4992240;28;20485;-53
2023/03/16 10:08:21;;;;;;;10.15;4.68;;;7.00;99.90;;;6.46;100.00;97410.41;5014794;28;20029;-52
2023/03/16 10:11:24;;;;;;;8.00;4.28;;;7.20;99.90;;;6.62;100.00;97413.56;5011993;28;20111;-53